sensor_id;sensor_type;location;lat;lon;timestamp;P1;durP1;ratioP1;P2;durP2;ratioP2
22754;SDS011;11544;42.020;23.094;2023-04-03T00:00:51;3.53;;;1.00;;
22754;SDS011;11544;42.020;23.094;2023-04-03T00:03:24;3.33;;;1.08;;
22754;SDS011;11544;42.020;23.094;2023-04-03T00:06:03;1.08;;;0.80;;
22754;SDS011;11544;42.020;23.094;2023-04-03T00:08:33;1.00;;;0.90;;
22754;SDS011;11544;42.020;23.094;2023-04-03T00:11:00;1.13;;;0.95;;
22754;SDS011;11544;42.020;23.094;2023-04-03T00:13:30;0.98;;;0.80;;
22754;SDS011;11544;42.020;23.094;2023-04-03T00:15:58;3.58;;;1.10;;
22754;SDS011;11544;42.020;23.094;2023-04-03T00:18:26;1.05;;;0.85;;
22754;SDS011;11544;42.020;23.094;2023-04-03T00:20:56;3.45;;;1.25;;
22754;SDS011;11544;42.020;23.094;2023-04-03T00:23:25;0.90;;;0.68;;
22754;SDS011;11544;42.020;23.094;2023-04-03T00:25:52;1.08;;;0.98;;
22754;SDS011;11544;42.020;23.094;2023-04-03T00:28:22;2.35;;;1.15;;
22754;SDS011;11544;42.020;23.094;2023-04-03T00:30:54;4.38;;;1.23;;
22754;SDS011;11544;42.020;23.094;2023-04-03T00:33:33;2.20;;;1.40;;
22754;SDS011;11544;42.020;23.094;2023-04-03T00:36:25;2.33;;;1.52;;
22754;SDS011;11544;42.020;23.094;2023-04-03T00:39:38;3.80;;;1.73;;
22754;SDS011;11544;42.020;23.094;2023-04-03T00:42:05;1.85;;;1.27;;
22754;SDS011;11544;42.020;23.094;2023-04-03T00:46:59;4.03;;;1.58;;
22754;SDS011;11544;42.020;23.094;2023-04-03T00:49:27;4.35;;;1.85;;
22754;SDS011;11544;42.020;23.094;2023-04-03T00:51:58;3.22;;;1.40;;
22754;SDS011;11544;42.020;23.094;2023-04-03T00:54:25;1.42;;;1.30;;
22754;SDS011;11544;42.020;23.094;2023-04-03T00:56:57;1.80;;;0.90;;
22754;SDS011;11544;42.020;23.094;2023-04-03T00:59:25;3.90;;;1.10;;
22754;SDS011;11544;42.020;23.094;2023-04-03T01:01:56;1.63;;;0.90;;
22754;SDS011;11544;42.020;23.094;2023-04-03T01:04:34;2.55;;;0.75;;
22754;SDS011;11544;42.020;23.094;2023-04-03T01:09:44;2.50;;;0.90;;
22754;SDS011;11544;42.020;23.094;2023-04-03T01:12:17;1.10;;;0.70;;
22754;SDS011;11544;42.020;23.094;2023-04-03T01:15:08;2.20;;;1.00;;
22754;SDS011;11544;42.020;23.094;2023-04-03T01:28:18;2.03;;;1.00;;
22754;SDS011;11544;42.020;23.094;2023-04-03T01:31:06;1.30;;;0.70;;
22754;SDS011;11544;42.020;23.094;2023-04-03T01:33:35;2.63;;;1.00;;
22754;SDS011;11544;42.020;23.094;2023-04-03T01:36:02;1.45;;;1.10;;
22754;SDS011;11544;42.020;23.094;2023-04-03T01:38:30;1.83;;;0.98;;
22754;SDS011;11544;42.020;23.094;2023-04-03T01:40:57;4.13;;;1.88;;
22754;SDS011;11544;42.020;23.094;2023-04-03T01:43:24;4.20;;;2.65;;
22754;SDS011;11544;42.020;23.094;2023-04-03T01:45:51;5.13;;;3.25;;
22754;SDS011;11544;42.020;23.094;2023-04-03T01:48:20;4.28;;;2.90;;
22754;SDS011;11544;42.020;23.094;2023-04-03T01:50:48;5.90;;;3.22;;
22754;SDS011;11544;42.020;23.094;2023-04-03T01:53:18;3.80;;;2.95;;
22754;SDS011;11544;42.020;23.094;2023-04-03T01:55:44;4.90;;;3.10;;
22754;SDS011;11544;42.020;23.094;2023-04-03T01:58:12;5.15;;;3.00;;
22754;SDS011;11544;42.020;23.094;2023-04-03T02:00:41;4.78;;;3.10;;
22754;SDS011;11544;42.020;23.094;2023-04-03T02:03:08;4.65;;;3.00;;
22754;SDS011;11544;42.020;23.094;2023-04-03T02:05:45;3.70;;;2.67;;
22754;SDS011;11544;42.020;23.094;2023-04-03T02:08:12;10.25;;;3.53;;
22754;SDS011;11544;42.020;23.094;2023-04-03T02:10:39;6.28;;;3.25;;
22754;SDS011;11544;42.020;23.094;2023-04-03T02:13:06;5.35;;;3.00;;
22754;SDS011;11544;42.020;23.094;2023-04-03T02:15:33;5.28;;;2.83;;
22754;SDS011;11544;42.020;23.094;2023-04-03T02:18:00;5.85;;;2.45;;
22754;SDS011;11544;42.020;23.094;2023-04-03T02:20:32;6.57;;;2.88;;
22754;SDS011;11544;42.020;23.094;2023-04-03T02:23:00;5.45;;;2.35;;
22754;SDS011;11544;42.020;23.094;2023-04-03T02:25:27;4.68;;;2.13;;
22754;SDS011;11544;42.020;23.094;2023-04-03T02:27:54;5.05;;;2.05;;
22754;SDS011;11544;42.020;23.094;2023-04-03T02:30:22;6.05;;;1.45;;
22754;SDS011;11544;42.020;23.094;2023-04-03T02:32:54;2.53;;;1.50;;
22754;SDS011;11544;42.020;23.094;2023-04-03T02:35:23;2.80;;;1.35;;
22754;SDS011;11544;42.020;23.094;2023-04-03T02:37:50;2.53;;;1.25;;
22754;SDS011;11544;42.020;23.094;2023-04-03T02:40:18;2.33;;;1.40;;
22754;SDS011;11544;42.020;23.094;2023-04-03T02:42:45;2.35;;;1.48;;
22754;SDS011;11544;42.020;23.094;2023-04-03T02:45:12;3.05;;;1.30;;
22754;SDS011;11544;42.020;23.094;2023-04-03T02:47:39;3.53;;;1.25;;
22754;SDS011;11544;42.020;23.094;2023-04-03T02:50:07;3.28;;;1.13;;
22754;SDS011;11544;42.020;23.094;2023-04-03T02:52:37;2.13;;;1.00;;
22754;SDS011;11544;42.020;23.094;2023-04-03T02:55:06;1.92;;;1.17;;
22754;SDS011;11544;42.020;23.094;2023-04-03T02:57:33;1.50;;;1.10;;
22754;SDS011;11544;42.020;23.094;2023-04-03T03:00:00;2.92;;;1.67;;
22754;SDS011;11544;42.020;23.094;2023-04-03T03:02:31;3.13;;;1.60;;
22754;SDS011;11544;42.020;23.094;2023-04-03T03:04:58;3.95;;;1.30;;
22754;SDS011;11544;42.020;23.094;2023-04-03T03:07:25;1.25;;;0.93;;
22754;SDS011;11544;42.020;23.094;2023-04-03T03:09:53;2.65;;;1.30;;
22754;SDS011;11544;42.020;23.094;2023-04-03T03:12:39;2.75;;;1.50;;
22754;SDS011;11544;42.020;23.094;2023-04-03T03:15:18;2.13;;;1.30;;
22754;SDS011;11544;42.020;23.094;2023-04-03T03:17:53;2.85;;;0.90;;
22754;SDS011;11544;42.020;23.094;2023-04-03T03:20:43;6.05;;;2.15;;
22754;SDS011;11544;42.020;23.094;2023-04-03T03:23:10;5.00;;;2.03;;
22754;SDS011;11544;42.020;23.094;2023-04-03T03:25:40;5.72;;;2.33;;
22754;SDS011;11544;42.020;23.094;2023-04-03T03:28:07;1.92;;;1.33;;
22754;SDS011;11544;42.020;23.094;2023-04-03T03:30:34;3.75;;;1.30;;
22754;SDS011;11544;42.020;23.094;2023-04-03T03:33:01;1.83;;;1.10;;
22754;SDS011;11544;42.020;23.094;2023-04-03T03:35:30;3.80;;;1.35;;
22754;SDS011;11544;42.020;23.094;2023-04-03T03:38:05;1.30;;;1.02;;
22754;SDS011;11544;42.020;23.094;2023-04-03T03:40:42;1.60;;;0.90;;
22754;SDS011;11544;42.020;23.094;2023-04-03T03:43:09;1.85;;;1.05;;
22754;SDS011;11544;42.020;23.094;2023-04-03T03:45:42;1.83;;;1.20;;
22754;SDS011;11544;42.020;23.094;2023-04-03T03:48:19;1.38;;;0.90;;
22754;SDS011;11544;42.020;23.094;2023-04-03T03:50:56;1.92;;;1.05;;
22754;SDS011;11544;42.020;23.094;2023-04-03T03:53:24;2.55;;;1.35;;
22754;SDS011;11544;42.020;23.094;2023-04-03T03:55:51;2.45;;;1.30;;
22754;SDS011;11544;42.020;23.094;2023-04-03T03:58:18;1.58;;;1.27;;
22754;SDS011;11544;42.020;23.094;2023-04-03T04:00:45;1.83;;;1.35;;
22754;SDS011;11544;42.020;23.094;2023-04-03T04:03:12;2.67;;;1.65;;
22754;SDS011;11544;42.020;23.094;2023-04-03T04:05:39;1.75;;;1.30;;
22754;SDS011;11544;42.020;23.094;2023-04-03T04:08:06;2.00;;;1.25;;
22754;SDS011;11544;42.020;23.094;2023-04-03T04:10:33;3.03;;;1.80;;
22754;SDS011;11544;42.020;23.094;2023-04-03T04:13:00;3.20;;;1.75;;
22754;SDS011;11544;42.020;23.094;2023-04-03T04:15:27;3.05;;;1.73;;
22754;SDS011;11544;42.020;23.094;2023-04-03T04:17:55;3.25;;;2.05;;
22754;SDS011;11544;42.020;23.094;2023-04-03T04:20:29;6.43;;;2.72;;
22754;SDS011;11544;42.020;23.094;2023-04-03T04:23:09;5.38;;;3.67;;
22754;SDS011;11544;42.020;23.094;2023-04-03T04:25:37;5.65;;;4.15;;
22754;SDS011;11544;42.020;23.094;2023-04-03T04:28:05;5.45;;;3.33;;
22754;SDS011;11544;42.020;23.094;2023-04-03T04:30:34;6.68;;;2.80;;
22754;SDS011;11544;42.020;23.094;2023-04-03T04:33:28;3.78;;;2.38;;
22754;SDS011;11544;42.020;23.094;2023-04-03T04:36:09;4.63;;;1.95;;
22754;SDS011;11544;42.020;23.094;2023-04-03T04:38:36;3.70;;;1.95;;
22754;SDS011;11544;42.020;23.094;2023-04-03T04:41:06;10.05;;;2.33;;
22754;SDS011;11544;42.020;23.094;2023-04-03T04:43:33;9.35;;;2.60;;
22754;SDS011;11544;42.020;23.094;2023-04-03T04:46:04;4.68;;;2.85;;
22754;SDS011;11544;42.020;23.094;2023-04-03T04:48:33;4.18;;;3.08;;
22754;SDS011;11544;42.020;23.094;2023-04-03T04:51:01;4.90;;;2.97;;
22754;SDS011;11544;42.020;23.094;2023-04-03T04:53:29;5.55;;;2.50;;
22754;SDS011;11544;42.020;23.094;2023-04-03T04:55:56;4.93;;;2.47;;
22754;SDS011;11544;42.020;23.094;2023-04-03T04:58:22;4.22;;;3.00;;
22754;SDS011;11544;42.020;23.094;2023-04-03T05:00:49;3.22;;;2.47;;
22754;SDS011;11544;42.020;23.094;2023-04-03T05:03:20;5.13;;;2.55;;
22754;SDS011;11544;42.020;23.094;2023-04-03T05:05:47;6.53;;;3.08;;
22754;SDS011;11544;42.020;23.094;2023-04-03T05:08:14;4.55;;;2.53;;
22754;SDS011;11544;42.020;23.094;2023-04-03T05:10:45;6.25;;;2.63;;
22754;SDS011;11544;42.020;23.094;2023-04-03T05:16:05;8.25;;;3.17;;
22754;SDS011;11544;42.020;23.094;2023-04-03T05:18:33;3.85;;;2.80;;
22754;SDS011;11544;42.020;23.094;2023-04-03T05:21:00;7.40;;;2.55;;
22754;SDS011;11544;42.020;23.094;2023-04-03T05:23:27;12.18;;;5.07;;
22754;SDS011;11544;42.020;23.094;2023-04-03T05:26:04;5.57;;;3.30;;
22754;SDS011;11544;42.020;23.094;2023-04-03T05:28:32;9.10;;;3.13;;
22754;SDS011;11544;42.020;23.094;2023-04-03T05:30:59;3.70;;;2.35;;
22754;SDS011;11544;42.020;23.094;2023-04-03T05:33:26;2.42;;;1.88;;
22754;SDS011;11544;42.020;23.094;2023-04-03T05:35:54;6.65;;;1.85;;
22754;SDS011;11544;42.020;23.094;2023-04-03T05:38:21;13.25;;;3.50;;
22754;SDS011;11544;42.020;23.094;2023-04-03T05:40:48;28.02;;;12.20;;
22754;SDS011;11544;42.020;23.094;2023-04-03T05:43:19;24.88;;;12.23;;
22754;SDS011;11544;42.020;23.094;2023-04-03T05:45:48;17.38;;;8.88;;
22754;SDS011;11544;42.020;23.094;2023-04-03T05:48:14;14.30;;;7.03;;
22754;SDS011;11544;42.020;23.094;2023-04-03T05:50:42;17.55;;;7.47;;
22754;SDS011;11544;42.020;23.094;2023-04-03T05:53:16;19.20;;;8.65;;
22754;SDS011;11544;42.020;23.094;2023-04-03T05:55:47;17.48;;;8.48;;
22754;SDS011;11544;42.020;23.094;2023-04-03T05:58:14;18.48;;;8.57;;
22754;SDS011;11544;42.020;23.094;2023-04-03T06:00:43;10.48;;;6.15;;
22754;SDS011;11544;42.020;23.094;2023-04-03T06:03:10;14.05;;;6.90;;
22754;SDS011;11544;42.020;23.094;2023-04-03T06:05:37;13.57;;;7.32;;
22754;SDS011;11544;42.020;23.094;2023-04-03T06:08:05;11.73;;;5.78;;
22754;SDS011;11544;42.020;23.094;2023-04-03T06:10:32;11.27;;;6.05;;
22754;SDS011;11544;42.020;23.094;2023-04-03T06:12:59;14.10;;;5.75;;
22754;SDS011;11544;42.020;23.094;2023-04-03T06:15:26;10.95;;;6.45;;
22754;SDS011;11544;42.020;23.094;2023-04-03T06:17:53;7.60;;;4.80;;
22754;SDS011;11544;42.020;23.094;2023-04-03T06:20:21;12.45;;;5.03;;
22754;SDS011;11544;42.020;23.094;2023-04-03T06:22:48;6.57;;;4.20;;
22754;SDS011;11544;42.020;23.094;2023-04-03T06:25:17;11.70;;;6.00;;
22754;SDS011;11544;42.020;23.094;2023-04-03T06:27:45;11.60;;;7.00;;
22754;SDS011;11544;42.020;23.094;2023-04-03T06:30:12;15.75;;;7.20;;
22754;SDS011;11544;42.020;23.094;2023-04-03T06:32:39;12.00;;;6.75;;
22754;SDS011;11544;42.020;23.094;2023-04-03T06:35:07;14.88;;;6.80;;
22754;SDS011;11544;42.020;23.094;2023-04-03T06:37:35;15.63;;;7.80;;
22754;SDS011;11544;42.020;23.094;2023-04-03T06:40:02;13.95;;;8.20;;
22754;SDS011;11544;42.020;23.094;2023-04-03T06:42:29;14.38;;;8.65;;
22754;SDS011;11544;42.020;23.094;2023-04-03T06:44:56;21.20;;;8.27;;
22754;SDS011;11544;42.020;23.094;2023-04-03T06:47:23;14.13;;;8.60;;
22754;SDS011;11544;42.020;23.094;2023-04-03T06:49:53;21.38;;;9.55;;
22754;SDS011;11544;42.020;23.094;2023-04-03T06:52:21;19.52;;;9.00;;
22754;SDS011;11544;42.020;23.094;2023-04-03T06:54:48;17.13;;;9.60;;
22754;SDS011;11544;42.020;23.094;2023-04-03T06:57:17;18.00;;;9.10;;
22754;SDS011;11544;42.020;23.094;2023-04-03T06:59:48;20.92;;;10.07;;
22754;SDS011;11544;42.020;23.094;2023-04-03T07:02:15;22.30;;;10.48;;
22754;SDS011;11544;42.020;23.094;2023-04-03T07:04:45;22.25;;;10.02;;
22754;SDS011;11544;42.020;23.094;2023-04-03T07:07:13;17.25;;;9.68;;
22754;SDS011;11544;42.020;23.094;2023-04-03T07:09:40;21.00;;;9.52;;
22754;SDS011;11544;42.020;23.094;2023-04-03T07:12:10;17.48;;;7.90;;
22754;SDS011;11544;42.020;23.094;2023-04-03T07:14:37;16.08;;;7.18;;
22754;SDS011;11544;42.020;23.094;2023-04-03T07:17:04;17.55;;;6.57;;
22754;SDS011;11544;42.020;23.094;2023-04-03T07:19:31;13.77;;;6.75;;
22754;SDS011;11544;42.020;23.094;2023-04-03T07:21:58;11.00;;;6.72;;
22754;SDS011;11544;42.020;23.094;2023-04-03T07:24:25;15.88;;;6.13;;
22754;SDS011;11544;42.020;23.094;2023-04-03T07:26:52;26.45;;;11.32;;
22754;SDS011;11544;42.020;23.094;2023-04-03T07:29:19;17.35;;;7.53;;
22754;SDS011;11544;42.020;23.094;2023-04-03T07:31:47;14.38;;;7.70;;
22754;SDS011;11544;42.020;23.094;2023-04-03T07:34:15;18.02;;;7.72;;
22754;SDS011;11544;42.020;23.094;2023-04-03T07:36:42;22.40;;;8.18;;
22754;SDS011;11544;42.020;23.094;2023-04-03T07:39:09;9.32;;;6.10;;
22754;SDS011;11544;42.020;23.094;2023-04-03T07:41:37;11.82;;;6.15;;
22754;SDS011;11544;42.020;23.094;2023-04-03T07:44:04;11.07;;;6.82;;
22754;SDS011;11544;42.020;23.094;2023-04-03T07:46:32;21.33;;;6.47;;
22754;SDS011;11544;42.020;23.094;2023-04-03T07:48:59;12.75;;;6.65;;
22754;SDS011;11544;42.020;23.094;2023-04-03T07:51:26;8.98;;;4.78;;
22754;SDS011;11544;42.020;23.094;2023-04-03T07:53:54;11.80;;;6.00;;
22754;SDS011;11544;42.020;23.094;2023-04-03T07:56:22;10.93;;;5.18;;
22754;SDS011;11544;42.020;23.094;2023-04-03T07:58:50;12.57;;;5.72;;
22754;SDS011;11544;42.020;23.094;2023-04-03T08:01:20;18.33;;;6.63;;
22754;SDS011;11544;42.020;23.094;2023-04-03T08:03:47;10.65;;;5.95;;
22754;SDS011;11544;42.020;23.094;2023-04-03T08:06:14;13.50;;;6.78;;
22754;SDS011;11544;42.020;23.094;2023-04-03T08:08:51;10.75;;;6.13;;
22754;SDS011;11544;42.020;23.094;2023-04-03T08:11:20;9.57;;;5.60;;
22754;SDS011;11544;42.020;23.094;2023-04-03T08:13:47;15.82;;;5.68;;
22754;SDS011;11544;42.020;23.094;2023-04-03T08:16:18;10.45;;;4.68;;
22754;SDS011;11544;42.020;23.094;2023-04-03T08:18:48;5.57;;;3.80;;
22754;SDS011;11544;42.020;23.094;2023-04-03T08:21:15;7.90;;;4.30;;
22754;SDS011;11544;42.020;23.094;2023-04-03T08:23:42;6.53;;;3.83;;
22754;SDS011;11544;42.020;23.094;2023-04-03T08:26:10;5.20;;;3.85;;
22754;SDS011;11544;42.020;23.094;2023-04-03T08:28:39;9.23;;;4.60;;
22754;SDS011;11544;42.020;23.094;2023-04-03T08:31:08;13.32;;;5.65;;
22754;SDS011;11544;42.020;23.094;2023-04-03T08:33:38;6.88;;;4.60;;
22754;SDS011;11544;42.020;23.094;2023-04-03T08:36:06;11.68;;;4.55;;
22754;SDS011;11544;42.020;23.094;2023-04-03T08:38:34;7.15;;;4.00;;
22754;SDS011;11544;42.020;23.094;2023-04-03T08:49:51;17.75;;;6.05;;
22754;SDS011;11544;42.020;23.094;2023-04-03T08:57:53;7.80;;;4.78;;
22754;SDS011;11544;42.020;23.094;2023-04-03T09:00:28;12.93;;;5.53;;
22754;SDS011;11544;42.020;23.094;2023-04-03T09:03:01;10.60;;;4.82;;
22754;SDS011;11544;42.020;23.094;2023-04-03T09:05:42;9.90;;;5.50;;
22754;SDS011;11544;42.020;23.094;2023-04-03T09:08:17;11.10;;;4.70;;
22754;SDS011;11544;42.020;23.094;2023-04-03T09:10:50;10.85;;;4.97;;
22754;SDS011;11544;42.020;23.094;2023-04-03T09:16:20;13.15;;;4.82;;
22754;SDS011;11544;42.020;23.094;2023-04-03T09:18:57;9.75;;;5.00;;
22754;SDS011;11544;42.020;23.094;2023-04-03T09:21:37;9.77;;;4.82;;
22754;SDS011;11544;42.020;23.094;2023-04-03T09:24:10;10.57;;;5.57;;
22754;SDS011;11544;42.020;23.094;2023-04-03T09:27:01;15.13;;;6.13;;
22754;SDS011;11544;42.020;23.094;2023-04-03T09:29:32;11.43;;;4.93;;
22754;SDS011;11544;42.020;23.094;2023-04-03T09:35:01;12.60;;;4.78;;
22754;SDS011;11544;42.020;23.094;2023-04-03T09:37:46;19.45;;;5.18;;
22754;SDS011;11544;42.020;23.094;2023-04-03T09:42:52;9.77;;;5.05;;
22754;SDS011;11544;42.020;23.094;2023-04-03T09:53:51;8.45;;;5.70;;
22754;SDS011;11544;42.020;23.094;2023-04-03T10:01:32;12.57;;;5.15;;
22754;SDS011;11544;42.020;23.094;2023-04-03T10:04:20;12.57;;;5.93;;
22754;SDS011;11544;42.020;23.094;2023-04-03T10:06:49;10.85;;;5.07;;
22754;SDS011;11544;42.020;23.094;2023-04-03T10:09:30;8.32;;;5.25;;
22754;SDS011;11544;42.020;23.094;2023-04-03T10:12:03;14.25;;;5.88;;
22754;SDS011;11544;42.020;23.094;2023-04-03T10:14:37;11.52;;;6.00;;
22754;SDS011;11544;42.020;23.094;2023-04-03T10:17:42;15.95;;;9.13;;
22754;SDS011;11544;42.020;23.094;2023-04-03T10:23:17;11.77;;;6.93;;
22754;SDS011;11544;42.020;23.094;2023-04-03T10:26:04;12.70;;;7.18;;
22754;SDS011;11544;42.020;23.094;2023-04-03T10:34:23;15.73;;;8.75;;
22754;SDS011;11544;42.020;23.094;2023-04-03T10:37:01;16.25;;;9.82;;
22754;SDS011;11544;42.020;23.094;2023-04-03T10:42:33;17.10;;;10.15;;
22754;SDS011;11544;42.020;23.094;2023-04-03T10:51:14;22.55;;;14.07;;
22754;SDS011;11544;42.020;23.094;2023-04-03T10:53:56;26.98;;;13.70;;
22754;SDS011;11544;42.020;23.094;2023-04-03T10:59:47;22.63;;;12.73;;
22754;SDS011;11544;42.020;23.094;2023-04-03T11:04:59;21.50;;;14.07;;
22754;SDS011;11544;42.020;23.094;2023-04-03T11:07:38;25.85;;;14.05;;
22754;SDS011;11544;42.020;23.094;2023-04-03T11:10:11;21.20;;;13.02;;
22754;SDS011;11544;42.020;23.094;2023-04-03T11:12:46;18.33;;;12.35;;
22754;SDS011;11544;42.020;23.094;2023-04-03T11:15:29;21.33;;;12.73;;
22754;SDS011;11544;42.020;23.094;2023-04-03T11:18:09;19.92;;;11.95;;
22754;SDS011;11544;42.020;23.094;2023-04-03T11:20:42;16.70;;;11.35;;
22754;SDS011;11544;42.020;23.094;2023-04-03T11:23:26;17.10;;;10.07;;
22754;SDS011;11544;42.020;23.094;2023-04-03T11:26:32;12.45;;;7.80;;
22754;SDS011;11544;42.020;23.094;2023-04-03T11:29:09;13.73;;;6.93;;
22754;SDS011;11544;42.020;23.094;2023-04-03T11:34:50;9.50;;;6.30;;
22754;SDS011;11544;42.020;23.094;2023-04-03T11:37:28;9.90;;;5.95;;
22754;SDS011;11544;42.020;23.094;2023-04-03T11:40:04;9.02;;;5.53;;
22754;SDS011;11544;42.020;23.094;2023-04-03T11:42:36;8.23;;;4.78;;
22754;SDS011;11544;42.020;23.094;2023-04-03T11:47:53;9.73;;;5.18;;
22754;SDS011;11544;42.020;23.094;2023-04-03T11:50:43;9.18;;;4.85;;
22754;SDS011;11544;42.020;23.094;2023-04-03T11:58:16;11.93;;;6.43;;
22754;SDS011;11544;42.020;23.094;2023-04-03T12:01:01;10.23;;;6.10;;
22754;SDS011;11544;42.020;23.094;2023-04-03T12:03:35;8.13;;;5.15;;
22754;SDS011;11544;42.020;23.094;2023-04-03T12:08:58;7.20;;;4.00;;
22754;SDS011;11544;42.020;23.094;2023-04-03T12:11:29;8.57;;;4.35;;
22754;SDS011;11544;42.020;23.094;2023-04-03T12:24:32;5.95;;;4.35;;
22754;SDS011;11544;42.020;23.094;2023-04-03T12:27:05;7.10;;;4.95;;
22754;SDS011;11544;42.020;23.094;2023-04-03T12:32:46;9.65;;;6.55;;
22754;SDS011;11544;42.020;23.094;2023-04-03T12:35:40;15.25;;;7.40;;
22754;SDS011;11544;42.020;23.094;2023-04-03T12:38:55;8.82;;;6.18;;
22754;SDS011;11544;42.020;23.094;2023-04-03T12:41:50;12.02;;;7.50;;
22754;SDS011;11544;42.020;23.094;2023-04-03T12:44:42;11.20;;;6.63;;
22754;SDS011;11544;42.020;23.094;2023-04-03T12:47:23;10.32;;;5.68;;
22754;SDS011;11544;42.020;23.094;2023-04-03T12:49:53;5.88;;;4.20;;
22754;SDS011;11544;42.020;23.094;2023-04-03T12:54:59;10.60;;;6.05;;
22754;SDS011;11544;42.020;23.094;2023-04-03T12:57:33;8.70;;;5.10;;
22754;SDS011;11544;42.020;23.094;2023-04-03T13:00:18;9.30;;;5.20;;
22754;SDS011;11544;42.020;23.094;2023-04-03T13:02:56;10.75;;;6.47;;
22754;SDS011;11544;42.020;23.094;2023-04-03T13:05:24;8.90;;;5.32;;
22754;SDS011;11544;42.020;23.094;2023-04-03T13:07:53;9.18;;;6.32;;
22754;SDS011;11544;42.020;23.094;2023-04-03T13:10:30;10.75;;;6.80;;
22754;SDS011;11544;42.020;23.094;2023-04-03T13:13:06;10.07;;;6.70;;
22754;SDS011;11544;42.020;23.094;2023-04-03T13:15:42;9.25;;;4.90;;
22754;SDS011;11544;42.020;23.094;2023-04-03T13:21:05;7.57;;;4.68;;
22754;SDS011;11544;42.020;23.094;2023-04-03T13:23:36;7.72;;;4.50;;
22754;SDS011;11544;42.020;23.094;2023-04-03T13:26:06;6.15;;;4.78;;
22754;SDS011;11544;42.020;23.094;2023-04-03T13:28:33;11.88;;;5.88;;
22754;SDS011;11544;42.020;23.094;2023-04-03T13:31:03;12.32;;;7.18;;
22754;SDS011;11544;42.020;23.094;2023-04-03T13:33:37;15.45;;;8.00;;
22754;SDS011;11544;42.020;23.094;2023-04-03T13:39:18;14.88;;;8.75;;
22754;SDS011;11544;42.020;23.094;2023-04-03T13:41:52;11.55;;;7.60;;
22754;SDS011;11544;42.020;23.094;2023-04-03T13:49:28;18.75;;;10.98;;
22754;SDS011;11544;42.020;23.094;2023-04-03T13:52:24;21.17;;;11.00;;
22754;SDS011;11544;42.020;23.094;2023-04-03T13:55:25;20.77;;;12.73;;
22754;SDS011;11544;42.020;23.094;2023-04-03T14:00:29;15.57;;;10.07;;
22754;SDS011;11544;42.020;23.094;2023-04-03T14:03:11;15.85;;;9.85;;
22754;SDS011;11544;42.020;23.094;2023-04-03T14:05:45;16.38;;;9.18;;
22754;SDS011;11544;42.020;23.094;2023-04-03T14:08:13;11.85;;;8.55;;
22754;SDS011;11544;42.020;23.094;2023-04-03T14:10:41;13.65;;;9.68;;
22754;SDS011;11544;42.020;23.094;2023-04-03T14:13:12;17.83;;;11.65;;
22754;SDS011;11544;42.020;23.094;2023-04-03T14:15:45;15.75;;;9.77;;
22754;SDS011;11544;42.020;23.094;2023-04-03T14:18:17;14.00;;;8.93;;
22754;SDS011;11544;42.020;23.094;2023-04-03T14:20:47;14.85;;;9.45;;
22754;SDS011;11544;42.020;23.094;2023-04-03T14:23:15;17.55;;;12.52;;
22754;SDS011;11544;42.020;23.094;2023-04-03T14:25:42;20.33;;;13.43;;
22754;SDS011;11544;42.020;23.094;2023-04-03T14:28:17;18.27;;;12.18;;
22754;SDS011;11544;42.020;23.094;2023-04-03T14:30:48;22.08;;;12.75;;
22754;SDS011;11544;42.020;23.094;2023-04-03T14:33:20;15.35;;;10.40;;
22754;SDS011;11544;42.020;23.094;2023-04-03T14:35:48;11.90;;;8.93;;
22754;SDS011;11544;42.020;23.094;2023-04-03T14:38:26;12.60;;;8.55;;
22754;SDS011;11544;42.020;23.094;2023-04-03T14:40:57;14.07;;;8.30;;
22754;SDS011;11544;42.020;23.094;2023-04-03T14:43:41;10.57;;;6.93;;
22754;SDS011;11544;42.020;23.094;2023-04-03T14:46:11;14.30;;;8.05;;
22754;SDS011;11544;42.020;23.094;2023-04-03T14:48:41;10.63;;;7.68;;
22754;SDS011;11544;42.020;23.094;2023-04-03T14:51:13;13.13;;;8.63;;
22754;SDS011;11544;42.020;23.094;2023-04-03T14:54:05;8.35;;;6.97;;
22754;SDS011;11544;42.020;23.094;2023-04-03T14:56:38;10.88;;;7.43;;
22754;SDS011;11544;42.020;23.094;2023-04-03T14:59:13;12.07;;;6.85;;
22754;SDS011;11544;42.020;23.094;2023-04-03T15:01:44;8.25;;;6.55;;
22754;SDS011;11544;42.020;23.094;2023-04-03T15:04:20;7.07;;;5.50;;
22754;SDS011;11544;42.020;23.094;2023-04-03T15:07:13;7.70;;;5.25;;
22754;SDS011;11544;42.020;23.094;2023-04-03T15:09:41;13.45;;;7.18;;
22754;SDS011;11544;42.020;23.094;2023-04-03T15:12:09;9.68;;;7.20;;
22754;SDS011;11544;42.020;23.094;2023-04-03T15:14:36;10.75;;;7.47;;
22754;SDS011;11544;42.020;23.094;2023-04-03T15:17:20;10.63;;;7.25;;
22754;SDS011;11544;42.020;23.094;2023-04-03T15:19:49;11.15;;;7.45;;
22754;SDS011;11544;42.020;23.094;2023-04-03T15:22:19;14.00;;;7.28;;
22754;SDS011;11544;42.020;23.094;2023-04-03T15:24:46;12.43;;;7.28;;
22754;SDS011;11544;42.020;23.094;2023-04-03T15:27:14;13.52;;;8.35;;
22754;SDS011;11544;42.020;23.094;2023-04-03T15:29:43;16.20;;;9.23;;
22754;SDS011;11544;42.020;23.094;2023-04-03T15:32:15;12.23;;;8.13;;
22754;SDS011;11544;42.020;23.094;2023-04-03T15:34:42;12.38;;;8.27;;
22754;SDS011;11544;42.020;23.094;2023-04-03T15:37:09;13.98;;;8.05;;
22754;SDS011;11544;42.020;23.094;2023-04-03T15:39:36;11.02;;;7.68;;
22754;SDS011;11544;42.020;23.094;2023-04-03T15:42:03;13.52;;;8.50;;
22754;SDS011;11544;42.020;23.094;2023-04-03T15:44:33;12.98;;;9.32;;
22754;SDS011;11544;42.020;23.094;2023-04-03T15:47:01;17.38;;;10.20;;
22754;SDS011;11544;42.020;23.094;2023-04-03T15:49:28;14.02;;;9.75;;
22754;SDS011;11544;42.020;23.094;2023-04-03T15:51:56;14.45;;;9.88;;
22754;SDS011;11544;42.020;23.094;2023-04-03T15:54:23;15.93;;;9.57;;
22754;SDS011;11544;42.020;23.094;2023-04-03T15:56:51;14.25;;;9.85;;
22754;SDS011;11544;42.020;23.094;2023-04-03T15:59:25;15.55;;;9.82;;
22754;SDS011;11544;42.020;23.094;2023-04-03T16:01:57;19.63;;;10.93;;
22754;SDS011;11544;42.020;23.094;2023-04-03T16:04:26;15.57;;;10.32;;
22754;SDS011;11544;42.020;23.094;2023-04-03T16:06:53;12.90;;;8.52;;
22754;SDS011;11544;42.020;23.094;2023-04-03T16:09:20;7.38;;;4.90;;
22754;SDS011;11544;42.020;23.094;2023-04-03T16:11:47;10.43;;;6.32;;
22754;SDS011;11544;42.020;23.094;2023-04-03T16:14:14;7.13;;;5.00;;
22754;SDS011;11544;42.020;23.094;2023-04-03T16:16:44;4.82;;;3.30;;
22754;SDS011;11544;42.020;23.094;2023-04-03T16:19:12;5.32;;;3.85;;
22754;SDS011;11544;42.020;23.094;2023-04-03T16:21:39;3.50;;;2.60;;
22754;SDS011;11544;42.020;23.094;2023-04-03T16:24:09;4.63;;;2.88;;
22754;SDS011;11544;42.020;23.094;2023-04-03T16:26:36;3.95;;;3.30;;
22754;SDS011;11544;42.020;23.094;2023-04-03T16:29:03;6.82;;;4.93;;
22754;SDS011;11544;42.020;23.094;2023-04-03T16:31:32;10.52;;;6.93;;
22754;SDS011;11544;42.020;23.094;2023-04-03T16:34:02;14.30;;;7.60;;
22754;SDS011;11544;42.020;23.094;2023-04-03T16:36:29;9.77;;;7.07;;
22754;SDS011;11544;42.020;23.094;2023-04-03T16:38:56;9.20;;;6.38;;
22754;SDS011;11544;42.020;23.094;2023-04-03T16:41:23;12.68;;;7.88;;
22754;SDS011;11544;42.020;23.094;2023-04-03T16:43:50;16.13;;;9.15;;
22754;SDS011;11544;42.020;23.094;2023-04-03T16:46:17;15.57;;;10.00;;
22754;SDS011;11544;42.020;23.094;2023-04-03T16:48:44;21.50;;;12.45;;
22754;SDS011;11544;42.020;23.094;2023-04-03T16:51:12;19.98;;;13.10;;
22754;SDS011;11544;42.020;23.094;2023-04-03T16:53:42;19.08;;;13.05;;